Airfield :
LOGIN :

Register | Disclaimer

   EN    FR    IT 

 










Legend :    VFR   Marginal VFR   IFR   Intensive IFR   Very Intensive IFR
Visi :
Ceiling :
>= 8 km
>= 3000ft
5 to 8 km
1000 to 3000 ft
1500m to 5 km
500 to 1000 ft
800 to 1500m
200 to 500 ft
< 800m
< 200 ft
Symbols :   Thunderstorms  Fog  Heavy snow  Heavy precipitations  Wind > 20 kt
SIGMETs :     Misc.  Thunderstorms  Icing  Turbulence  Mountain Waves  Volcanic Ashes







- Airport Elevation : 39 ft
- IATA code : TRS


LIPQ - Friuli Venezia Giulia Apt. Trieste

EXPIRED METARs :
  • 241420Z 18006KT 160V240 9999 FEW060 31/19 Q1013
  • 241350Z 20007KT 160V240 9999 FEW060 31/20 Q1013
  • 241320Z 21009KT 180V240 9999 FEW060 31/20 Q1013
  • 241250Z 24008KT 9999 FEW060 32/20 Q1014
  • 241220Z 23008KT 9999 FEW060 32/19 Q1014
  • 241150Z 25008KT 9999 SCT060 32/18 Q1014

Expired Forecast.
No reported NOTAMs for that airfield.
2 SIGMETs reported for the Milano FIR (LIMM) :
 
Embedded thunderstorms
LIMM SIGMET 2 VALID 250700/250900 LIMM- LIMM MILANO FIR EMBD TS OBS WI N4628 E00920 - N4447 E00931 - N4509 E01055 - N4600 E01329 - N4630 E01337 - N4705 E01202 - N4651 E01026 - N4628 E00920 TOP FL400 MOV E NC=
Embedded thunderstorms
LIMM SIGMET 1 VALID 250400/250700 LIMM- LIMM MILANO FIR EMBD TS OBS WI N4439 E00704 - N4529 E00751 - N4531 E00852 - N4541 E01036 - N4553 E01333 - N4603 E01333 - N4612 E01340 - N4616 E01321 - N4628 E01338 - N4641 E01230 - N4705 E01207 - N4656 E01112 - N4647 E01059 - N4652 E01030 - N4636 E01023 - N4636 E01006 - N4615 E01006 - N4621 E00954 - N4616 E00930 - N4628 E00925 - N4601 E00903 - N4545 E00858 - N4604 E00846 - N4616 E00827 - N4625 E00822 - N4613 E00809 - N4555 E00752 - N4555 E00719 - N4549 E00648 - N4522 E00710 - N4510 E00652 - N4510 E00636 - N4452 E00649 - N4439 E00704 CB TOP AT FL390 MOV E NC=



MET'MAP, your aeronautical weather chart ! - Copyright ORBIFLY December 2007 - Disclaimer

ORBIFLY MET'MAP TEAM :

Programming & Development : Alexandra Zaïnal
Concept & Development : Baudouin d'Aumeries
Co-Development & Prog : Marc-Olivier Méhu
Technical & hardware support : Manuel Goepfert

Contact : metmap@orbifly.com




SOURCES & CREDITS :

   NOAA